Roberts, MT

2:13 PM MDT on May 04, 2015 (GMT -0600)
Mission | | Change Station
CLOSE
Current Station
Airport
Location: Livingston,
Elevation: 4656 ft
Nearby Weather Stations

Elev 4656 ft 45.70 °N, 110.44 °W | Updated 1 hour ago

Clear
Clear
68 °F
Feels Like 68 °F
N
13
Wind Variable Wind from SE
Gusts 22 mph

Today
High -- | Low -- °F
--% Chance of Precip.
Yesterday
High -- | Low -- °F
Precip. -- in
6:00 AM 8:26 PM
Full, 100% visible
Pressure 29.88 in
Visibility 10.0 miles
Clouds Clear
Dew Point 38 °F
Humidity 33%
Rainfall 0.00 in
Snow Depth Not available.
UV 10 out of 12
Pollen 9.20 out of 12
Air Quality Not available.
Flu Activity Local Activity
METAR KLVM 041853Z AUTO 13011G19KT 10SM CLR 20/03 A2995 RMK AO2 WSHFT 1804 LTG DSNT SE SLP117 T02000033

More Conditions Fewer Conditions

Pressure 29.88 in
Visibility 10.0 miles
Clouds Clear
Dew Point 38 °F
Humidity 33%
Rainfall 0.00 in
Snow Depth Not available.
UV 10 out of 12
Pollen 9.20 out of 12
Air Quality Not available.
Flu Activity Local Activity
METAR KLVM 041853Z AUTO 13011G19KT 10SM CLR 20/03 A2995 RMK AO2 WSHFT 1804 LTG DSNT SE SLP117 T02000033

More Conditions Fewer Conditions

Nepal has a long way to go to dig out and rebuild from a devastating earthquake. We have teamed up with several charities and organizations to make contributing to the relief effort as easy as possible.
How you can help: Portlight Strategies | Red Cross

10-Day Weather Forecast

Almanac

Astronomy

May. 04, 2015 Rise Set
Actual Time
Civil Twilight
Nautical Twilight
Astronomical Twilight
Moon
Length of Visible Light
Length of Day
Tomorrow will be .
, % of the Moon is Illuminated

Today's Extremes

State Highs State Lows

Community

WunderPhotos

Upload Photos

1,818,680 photos uploaded!

WunderBlogs® & News

Nearby

Air Quality

  Air Quality AQ Index Pollutant
Not available.

Snow Depth

Station Depth Elevation

Earthquake Activity

City Distance Mag. Time & Date
Minimum magnitude displayed is 2.5.

Coastal Water Temperatures

Place Temperature

Stations

Nearby Weather Stations

Station Location Temp. Windchill Dew Point Humidity Wind Precip. Elev Updated Type